createdAt,value
2018-01-10T00:00:22.136Z,149.8274
2018-01-10T00:01:27.916Z,149.3227
2018-01-10T00:02:32.509Z,149.1536
2018-01-10T00:03:38.021Z,150.0811
2018-01-10T00:04:43.475Z,149.5764
2018-01-10T00:05:48.948Z,149.3227
2018-01-10T00:06:54.415Z,149.8274
2018-01-10T00:07:59.884Z,149.8274
2018-01-10T00:09:05.358Z,149.5764
2018-01-10T00:10:10.221Z,149.1536
2018-01-10T00:11:15.411Z,150.0811
2018-01-10T00:12:20.877Z,149.5764
2018-01-10T00:13:26.424Z,149.8274
2018-01-10T00:14:31.629Z,149.8274
2018-01-10T00:15:37.369Z,150.0811
2018-01-10T00:16:42.840Z,149.1536
2018-01-10T00:17:47.768Z,149.5764
2018-01-10T00:18:53.009Z,149.5764
2018-01-10T00:19:58.460Z,150.3347
2018-01-10T00:21:03.951Z,150.5884
2018-01-10T00:22:09.494Z,149.8274
2018-01-10T00:23:14.938Z,149.5764
2018-01-10T00:24:20.417Z,149.3227
2018-01-10T00:25:25.848Z,150.0811
2018-01-10T00:26:31.355Z,149.5764
2018-01-10T00:27:36.789Z,150.0811
2018-01-10T00:28:42.269Z,149.8274
2018-01-10T00:29:47.733Z,149.5764
2018-01-10T00:30:53.451Z,149.5764
2018-01-10T00:31:58.915Z,149.3227
2018-01-10T00:33:04.397Z,150.3347
2018-01-10T00:34:10.228Z,149.5764
2018-01-10T00:35:15.429Z,149.8274
2018-01-10T00:36:20.620Z,150.3347
2018-01-10T00:37:41.071Z,149.3227
2018-01-10T00:38:45.961Z,150.0811
2018-01-10T00:39:51.480Z,149.8274
2018-01-10T00:40:56.674Z,149.8274
2018-01-10T00:42:02.145Z,150.0811
2018-01-10T00:43:07.965Z,150.0811
2018-01-10T00:44:13.436Z,149.3227
2018-01-10T00:45:18.941Z,150.0811
2018-01-10T00:46:24.755Z,150.0811
2018-01-10T00:47:30.239Z,151.0957
2018-01-10T00:48:35.472Z,149.8274
2018-01-10T00:49:40.658Z,150.0811
2018-01-10T00:50:46.104Z,150.3347
2018-01-10T00:51:51.866Z,150.3347
2018-01-10T00:52:57.364Z,150.0811
2018-01-10T00:54:02.808Z,150.0811
2018-01-10T00:55:08.256Z,150.5884
2018-01-10T00:56:13.470Z,150.5884
2018-01-10T00:57:18.937Z,150.0811
2018-01-10T00:58:24.649Z,151.0957
2018-01-10T00:59:29.861Z,151.0957
2018-01-10T01:00:35.149Z,150.5884
2018-01-10T01:01:40.625Z,150.8421
2018-01-10T01:02:46.099Z,149.8274
2018-01-10T01:03:51.865Z,150.5884
2018-01-10T01:04:57.381Z,150.8421
2018-01-10T01:06:02.833Z,151.3494
2018-01-10T01:07:08.299Z,151.0957
2018-01-10T01:08:13.489Z,150.8421
2018-01-10T01:09:18.961Z,151.6031
2018-01-10T01:10:24.840Z,151.3494
2018-01-10T01:11:30.051Z,151.3494
2018-01-10T01:12:35.743Z,151.6031
2018-01-10T01:13:40.921Z,152.0232
2018-01-10T01:14:46.125Z,152.2769
2018-01-10T01:15:52.056Z,152.2769
2018-01-10T01:16:57.270Z,152.0232
2018-01-10T01:18:02.457Z,151.7722
2018-01-10T01:19:08.284Z,152.0232
2018-01-10T01:20:13.752Z,153.0378
2018-01-10T01:21:18.951Z,152.2769
2018-01-10T01:22:24.359Z,152.5305
2018-01-10T01:23:29.526Z,152.7842
2018-01-10T01:24:34.132Z,153.0378
2018-01-10T01:25:39.617Z,153.7988
2018-01-10T01:26:45.080Z,153.2915
2018-01-10T01:27:50.522Z,153.2915
2018-01-10T01:28:55.719Z,153.0378
2018-01-10T01:30:00.929Z,153.5452
2018-01-10T01:31:06.082Z,153.2915
2018-01-10T01:32:11.559Z,153.2915
2018-01-10T01:33:16.483Z,153.2915
2018-01-10T01:34:22.317Z,153.5452
2018-01-10T01:35:27.491Z,153.0378
2018-01-10T01:36:33.364Z,153.0378
2018-01-10T01:37:38.570Z,152.5305
2018-01-10T01:38:44.058Z,154.3062
2018-01-10T01:39:49.485Z,153.0378
2018-01-10T01:40:54.980Z,154.0525
2018-01-10T01:42:00.449Z,153.0378
2018-01-10T01:43:05.880Z,153.7988
2018-01-10T01:44:11.055Z,153.2915
2018-01-10T01:45:16.236Z,153.5452
2018-01-10T01:46:21.481Z,153.5452
2018-01-10T01:47:26.942Z,154.3062
2018-01-10T01:48:32.362Z,153.5452
2018-01-10T01:49:37.269Z,154.3062
2018-01-10T01:50:42.747Z,152.2769
2018-01-10T01:51:48.723Z,152.0232
2018-01-10T01:52:53.914Z,152.5305
2018-01-10T01:53:59.357Z,153.0378
2018-01-10T01:55:04.503Z,153.7988
2018-01-10T01:56:09.978Z,153.2915
2018-01-10T01:57:15.448Z,153.7988
2018-01-10T01:58:21.298Z,153.0378
2018-01-10T01:59:26.225Z,154.0525
2018-01-10T02:00:31.562Z,153.5452
2018-01-10T02:01:36.756Z,153.7988
2018-01-10T02:02:41.963Z,153.2915
2018-01-10T02:03:47.147Z,154.0525
2018-01-10T02:04:52.311Z,153.7988
2018-01-10T02:05:57.797Z,153.7988
2018-01-10T02:07:03.329Z,154.0525
2018-01-10T02:08:08.540Z,154.3062
2018-01-10T02:09:13.764Z,154.4753
2018-01-10T02:10:19.207Z,154.9826
2018-01-10T02:11:24.401Z,154.9826
2018-01-10T02:12:30.408Z,154.9826
2018-01-10T02:13:35.583Z,154.9826
2018-01-10T02:14:40.778Z,154.7289
2018-01-10T02:15:46.289Z,153.7988
2018-01-10T02:16:51.773Z,155.2336
2018-01-10T02:17:57.008Z,154.4753
2018-01-10T02:19:02.542Z,154.3062
2018-01-10T02:20:07.736Z,154.9826
2018-01-10T02:21:12.930Z,154.3062
2018-01-10T02:22:18.380Z,155.2336
2018-01-10T02:23:23.859Z,154.0525
2018-01-10T02:24:29.019Z,154.9826
2018-01-10T02:25:34.553Z,154.0525
2018-01-10T02:26:39.772Z,154.3062
2018-01-10T02:27:45.739Z,154.9826
2018-01-10T02:28:51.205Z,154.3062
2018-01-10T02:29:56.682Z,154.4753
2018-01-10T02:31:02.406Z,154.7289
2018-01-10T02:32:07.853Z,154.0525
2018-01-10T02:33:13.319Z,154.3062
2018-01-10T02:34:18.837Z,153.7988
2018-01-10T02:35:23.815Z,153.7988
2018-01-10T02:36:29.710Z,154.0525
2018-01-10T02:37:34.891Z,153.2915
2018-01-10T02:38:40.085Z,154.0525
2018-01-10T02:39:45.526Z,153.7988
2018-01-10T02:40:51.023Z,152.7842
2018-01-10T02:41:56.513Z,153.0378
2018-01-10T02:43:02.273Z,153.7988
2018-01-10T02:44:07.438Z,155.2336
2018-01-10T02:45:12.904Z,154.0525
2018-01-10T02:46:18.635Z,153.7988
2018-01-10T02:47:24.084Z,154.3062
2018-01-10T02:48:29.864Z,154.3062
2018-01-10T02:49:33.937Z,154.3062
2018-01-10T02:50:39.166Z,154.7289
2018-01-10T02:51:44.882Z,154.7289
2018-01-10T02:52:50.111Z,154.0525
2018-01-10T02:53:55.587Z,154.3062
2018-01-10T02:55:01.187Z,154.4753
2018-01-10T02:56:06.642Z,154.3062
2018-01-10T02:57:11.816Z,154.4753
2018-01-10T02:58:17.755Z,153.7988
2018-01-10T02:59:23.428Z,153.7988
2018-01-10T03:00:29.267Z,154.3062
2018-01-10T03:01:34.479Z,154.3062
2018-01-10T03:02:39.952Z,153.2915
2018-01-10T03:03:45.458Z,153.2915
2018-01-10T03:04:50.360Z,152.7842
2018-01-10T03:05:55.845Z,153.7988
2018-01-10T03:07:01.543Z,153.0378
2018-01-10T03:08:06.730Z,154.3062
2018-01-10T03:09:12.235Z,154.0525
2018-01-10T03:10:18.062Z,154.0525
2018-01-10T03:11:23.522Z,154.4753
2018-01-10T03:12:28.981Z,154.4753
2018-01-10T03:13:34.176Z,154.4753
2018-01-10T03:14:39.653Z,154.4753
2018-01-10T03:15:45.389Z,153.5452
2018-01-10T03:16:50.858Z,154.7289
2018-01-10T03:17:56.340Z,154.3062
2018-01-10T03:19:01.799Z,153.5452
2018-01-10T03:20:06.424Z,154.3062
2018-01-10T03:21:11.628Z,154.0525
2018-01-10T03:22:17.347Z,154.4753
2018-01-10T03:23:22.821Z,154.0525
2018-01-10T03:24:28.492Z,154.4753
2018-01-10T03:25:33.159Z,154.4753
2018-01-10T03:26:38.346Z,153.5452
2018-01-10T03:27:43.889Z,154.3062
2018-01-10T03:28:49.086Z,154.9826
2018-01-10T03:29:53.965Z,153.7988
2018-01-10T03:30:59.498Z,154.9826
2018-01-10T03:32:04.976Z,154.3062
2018-01-10T03:33:10.460Z,153.5452
2018-01-10T03:34:16.185Z,154.4753
2018-01-10T03:35:21.364Z,154.9826
2018-01-10T03:36:27.103Z,153.5452
2018-01-10T03:37:32.040Z,154.0525
2018-01-10T03:38:36.959Z,154.9826
2018-01-10T03:39:42.597Z,154.4753
2018-01-10T03:40:47.500Z,154.0525
2018-01-10T03:41:52.970Z,154.9826
2018-01-10T03:42:58.674Z,155.4873
2018-01-10T03:44:03.862Z,154.4753
2018-01-10T03:45:09.058Z,155.2336
2018-01-10T03:46:14.513Z,155.2336
2018-01-10T03:47:19.716Z,154.7289
2018-01-10T03:48:25.871Z,154.7289
2018-01-10T03:49:31.348Z,154.7289
2018-01-10T03:50:35.953Z,154.0525
2018-01-10T03:51:41.138Z,154.7289
2018-01-10T03:52:46.303Z,154.3062
2018-01-10T03:53:51.780Z,154.3062
2018-01-10T03:54:57.506Z,154.3062
2018-01-10T03:56:02.976Z,153.7988
2018-01-10T03:57:08.459Z,153.5452
2018-01-10T03:58:13.891Z,154.3062
2018-01-10T03:59:19.367Z,154.4753
2018-01-10T04:00:25.290Z,154.4753
2018-01-10T04:01:30.485Z,154.4753
2018-01-10T04:02:35.673Z,154.0525
2018-01-10T04:03:41.241Z,154.3062
2018-01-10T04:04:46.703Z,153.5452
2018-01-10T04:05:51.919Z,154.0525
2018-01-10T04:06:57.052Z,153.7988
2018-01-10T04:08:02.529Z,153.2915
2018-01-10T04:09:07.729Z,154.3062
2018-01-10T04:10:13.447Z,154.3062
2018-01-10T04:11:18.896Z,153.5452
2018-01-10T04:13:44.812Z,154.0525
2018-01-10T04:14:50.320Z,154.7289
2018-01-10T04:15:56.192Z,154.7289
2018-01-10T04:17:01.373Z,154.7289
2018-01-10T04:18:06.555Z,154.9826
2018-01-10T04:19:11.984Z,154.4753
2018-01-10T04:20:17.460Z,154.9826
2018-01-10T04:21:22.939Z,154.4753
2018-01-10T04:22:28.731Z,154.7289
2018-01-10T04:23:34.197Z,154.3062
2018-01-10T04:24:39.936Z,154.7289
2018-01-10T04:25:45.112Z,154.3062
2018-01-10T04:26:50.328Z,154.7289
2018-01-10T04:27:56.152Z,154.9826
2018-01-10T04:29:01.628Z,154.3062
2018-01-10T04:30:06.524Z,154.4753
2018-01-10T04:31:12.074Z,154.9826
2018-01-10T04:32:17.238Z,154.7289
2018-01-10T04:33:22.127Z,154.0525
2018-01-10T04:34:27.852Z,153.7988
2018-01-10T04:35:33.379Z,154.3062
2018-01-10T04:36:38.923Z,154.4753
2018-01-10T04:37:44.412Z,154.9826
2018-01-10T04:38:49.881Z,154.7289
2018-01-10T04:39:55.695Z,154.9826
2018-01-10T04:41:01.204Z,153.7988
2018-01-10T04:42:06.115Z,154.0525
2018-01-10T04:43:11.553Z,154.4753
2018-01-10T04:44:17.013Z,153.5452
2018-01-10T04:45:22.191Z,153.7988
2018-01-10T04:46:27.963Z,154.0525
2018-01-10T04:47:32.868Z,153.5452
2018-01-10T04:48:38.356Z,154.4753
2018-01-10T04:49:43.818Z,154.9826
2018-01-10T04:50:49.285Z,154.9826
2018-01-10T04:51:55.021Z,154.3062
2018-01-10T04:53:00.488Z,154.9826
2018-01-10T04:54:05.691Z,154.7289
2018-01-10T04:55:10.885Z,154.3062
2018-01-10T04:56:16.057Z,154.4753
2018-01-10T04:57:21.233Z,155.7409
2018-01-10T04:58:27.329Z,154.4753
2018-01-10T04:59:32.790Z,154.7289
2018-01-10T05:00:38.123Z,154.9826
2018-01-10T05:01:43.616Z,154.9826
2018-01-10T05:02:49.106Z,154.4753
2018-01-10T05:03:54.906Z,155.2336
2018-01-10T05:05:00.364Z,155.4873
2018-01-10T05:06:05.872Z,154.4753
2018-01-10T05:07:11.049Z,154.3062
2018-01-10T05:08:16.489Z,154.7289
2018-01-10T05:09:21.988Z,154.7289
2018-01-10T05:10:27.796Z,154.3062
2018-01-10T05:11:32.987Z,154.7289
2018-01-10T05:12:38.907Z,154.9826
2018-01-10T05:13:44.365Z,155.2336
2018-01-10T05:14:49.838Z,155.2336
2018-01-10T05:15:55.555Z,154.7289
2018-01-10T05:17:01.034Z,154.3062
2018-01-10T05:18:06.243Z,154.3062
2018-01-10T05:19:11.491Z,153.7988
2018-01-10T05:20:16.970Z,154.7289
2018-01-10T05:21:22.430Z,154.7289
2018-01-10T05:22:28.237Z,154.3062
2018-01-10T05:23:33.431Z,154.4753
2018-01-10T05:24:38.851Z,154.3062
2018-01-10T05:25:44.309Z,155.4873
2018-01-10T05:26:49.533Z,155.2336
2018-01-10T05:27:55.267Z,154.3062
2018-01-10T05:29:00.747Z,154.9826
2018-01-10T05:30:05.958Z,154.7289
2018-01-10T05:31:10.671Z,155.2336
2018-01-10T05:32:15.577Z,154.7289
2018-01-10T05:33:21.036Z,154.4753
2018-01-10T05:34:41.443Z,154.9826
2018-01-10T05:35:46.944Z,154.3062
2018-01-10T05:36:52.378Z,154.4753
2018-01-10T05:37:57.549Z,154.7289
2018-01-10T05:39:02.744Z,154.9826
2018-01-10T05:40:08.197Z,154.4753
2018-01-10T05:41:13.653Z,155.2336
2018-01-10T05:42:19.132Z,155.2336
2018-01-10T05:43:24.952Z,154.9826
2018-01-10T05:44:30.436Z,155.4873
2018-01-10T05:45:35.612Z,154.7289
2018-01-10T05:46:40.803Z,154.9826
2018-01-10T05:47:46.259Z,154.7289
2018-01-10T05:48:52.031Z,154.7289
2018-01-10T05:49:57.480Z,154.4753
2018-01-10T05:51:02.943Z,154.0525
2018-01-10T05:52:08.462Z,154.3062
2018-01-10T05:53:13.639Z,154.2216
2018-01-10T05:54:19.086Z,154.9826
2018-01-10T05:55:24.544Z,154.3062
2018-01-10T05:56:29.753Z,154.4753
2018-01-10T05:57:35.300Z,153.5452
2018-01-10T05:58:40.508Z,154.9826
2018-01-10T05:59:45.974Z,154.4753
2018-01-10T06:00:51.521Z,154.4753
2018-01-10T06:01:57.026Z,155.2336
2018-01-10T06:03:02.549Z,155.2336
2018-01-10T06:04:07.784Z,155.7409
2018-01-10T06:05:12.972Z,155.4873
2018-01-10T06:06:17.872Z,154.9826
2018-01-10T06:07:23.053Z,156.1637
2018-01-10T06:08:28.234Z,155.7409
2018-01-10T06:09:33.903Z,155.91
2018-01-10T06:10:39.270Z,156.1637
2018-01-10T06:11:44.442Z,156.4174
2018-01-10T06:12:50.208Z,154.9826
2018-01-10T06:13:55.373Z,156.4174
2018-01-10T06:15:00.855Z,155.2336
2018-01-10T06:16:06.614Z,155.2336
2018-01-10T06:17:12.094Z,155.4873
2018-01-10T06:18:17.272Z,155.7409
2018-01-10T06:19:22.768Z,155.2336
2018-01-10T06:20:28.229Z,155.2336
2018-01-10T06:21:33.577Z,155.4873
2018-01-10T06:22:38.778Z,155.4873
2018-01-10T06:23:44.227Z,155.91
2018-01-10T06:24:50.204Z,155.91
2018-01-10T06:25:55.896Z,155.7409
2018-01-10T06:27:01.361Z,155.91
2018-01-10T06:28:06.808Z,156.1637
2018-01-10T06:29:12.279Z,155.4873
2018-01-10T06:30:17.458Z,154.7289
2018-01-10T06:31:23.028Z,155.7409
2018-01-10T06:32:28.497Z,155.91
2018-01-10T06:33:33.398Z,155.4873
2018-01-10T06:34:38.565Z,156.1637
2018-01-10T06:35:43.781Z,155.91
2018-01-10T06:36:49.345Z,156.1637
2018-01-10T06:37:54.805Z,155.7409
2018-01-10T06:38:59.986Z,155.91
2018-01-10T06:40:05.734Z,155.7409
2018-01-10T06:41:11.201Z,155.4873
2018-01-10T06:42:16.397Z,156.4174
2018-01-10T06:43:22.240Z,156.1637
2018-01-10T06:44:27.125Z,156.4174
2018-01-10T06:45:32.279Z,156.1637
2018-01-10T06:46:37.475Z,155.4873
2018-01-10T06:47:42.658Z,156.4174
2018-01-10T06:48:48.199Z,155.7409
2018-01-10T06:49:53.665Z,156.4174
2018-01-10T06:50:58.834Z,156.1637
2018-01-10T06:52:04.037Z,155.7409
2018-01-10T06:53:09.225Z,156.1637
2018-01-10T06:54:14.706Z,155.2336
2018-01-10T06:55:20.545Z,156.1637
2018-01-10T06:56:25.786Z,155.91
2018-01-10T06:57:31.350Z,155.7409
2018-01-10T06:58:36.833Z,155.91
2018-01-10T06:59:42.040Z,155.4873
2018-01-10T07:00:47.198Z,155.91
2018-01-10T07:01:52.680Z,155.91
2018-01-10T07:02:57.893Z,155.91
2018-01-10T07:04:03.347Z,156.1637
2018-01-10T07:05:08.235Z,155.7409
2018-01-10T07:06:13.139Z,156.1637
2018-01-10T07:07:18.856Z,155.91
2018-01-10T07:08:24.362Z,155.7409
2018-01-10T07:09:29.812Z,155.7409
2018-01-10T07:10:35.029Z,156.8401
2018-01-10T07:11:40.435Z,155.7409
2018-01-10T07:12:46.179Z,155.7409
2018-01-10T07:13:51.649Z,155.7409
2018-01-10T07:14:57.128Z,155.4873
2018-01-10T07:16:02.605Z,155.7409
2018-01-10T07:17:08.062Z,155.2336
2018-01-10T07:18:13.572Z,155.2336
2018-01-10T07:19:19.042Z,155.91
2018-01-10T07:20:24.759Z,155.91
2018-01-10T07:21:30.317Z,155.2336
2018-01-10T07:22:34.931Z,155.4873
2018-01-10T07:23:40.378Z,154.9826
2018-01-10T07:24:46.092Z,155.4873
2018-01-10T07:25:51.258Z,155.7409
2018-01-10T07:26:56.743Z,154.7289
2018-01-10T07:28:02.415Z,155.7409
2018-01-10T07:29:07.024Z,154.9826
2018-01-10T07:30:12.494Z,155.2336
2018-01-10T07:31:18.253Z,154.7289
2018-01-10T07:32:23.723Z,154.4753
2018-01-10T07:33:29.447Z,154.4753
2018-01-10T07:34:34.641Z,154.0525
2018-01-10T07:35:39.826Z,154.7289
2018-01-10T07:36:45.737Z,154.4753
2018-01-10T07:37:50.957Z,154.7289
2018-01-10T07:38:55.590Z,154.4753
2018-01-10T07:40:00.763Z,154.4753
2018-01-10T07:41:05.382Z,154.4753
2018-01-10T07:42:10.274Z,154.9826
2018-01-10T07:43:15.734Z,154.4753
2018-01-10T07:44:20.848Z,154.2216
2018-01-10T07:45:40.972Z,154.9826
2018-01-10T07:46:46.572Z,154.9826
2018-01-10T07:47:51.756Z,154.7289
2018-01-10T07:48:57.808Z,154.4753
2018-01-10T07:50:02.741Z,154.4753
2018-01-10T07:51:07.667Z,154.7289
2018-01-10T07:52:13.545Z,154.9826
2018-01-10T07:53:19.121Z,154.4753
2018-01-10T07:54:39.312Z,154.7289
2018-01-10T07:55:44.832Z,154.0525
2018-01-10T07:56:50.517Z,153.7988
2018-01-10T07:57:56.245Z,153.5452
2018-01-10T07:59:01.427Z,153.7988
2018-01-10T08:00:06.905Z,153.5452
2018-01-10T08:01:12.701Z,153.7988
2018-01-10T08:02:18.180Z,153.2915
2018-01-10T08:03:23.715Z,153.0378
2018-01-10T08:04:43.924Z,153.0378
2018-01-10T08:05:49.570Z,153.7988
2018-01-10T08:06:55.111Z,153.2915
2018-01-10T08:08:01.099Z,153.2915
2018-01-10T08:09:06.299Z,152.7842
2018-01-10T08:10:11.422Z,152.5305
2018-01-10T08:11:16.885Z,153.5452
2018-01-10T08:12:22.751Z,153.2915
2018-01-10T08:13:28.490Z,153.2915
2018-01-10T08:14:33.980Z,152.7842
2018-01-10T08:15:39.718Z,153.2915
2018-01-10T08:16:45.212Z,153.0378
2018-01-10T08:17:50.114Z,153.2915
2018-01-10T08:18:55.841Z,153.2915
2018-01-10T08:20:01.242Z,153.0378
2018-01-10T08:21:06.772Z,152.7842
2018-01-10T08:22:12.604Z,152.5305
2018-01-10T08:23:17.508Z,152.2769
2018-01-10T08:24:22.970Z,152.7842
2018-01-10T08:25:28.390Z,153.7988
2018-01-10T08:26:34.025Z,153.0378
2018-01-10T08:27:39.500Z,152.7842
2018-01-10T08:28:44.724Z,153.0378
2018-01-10T08:29:50.201Z,152.7842
2018-01-10T08:30:56.033Z,153.5452
2018-01-10T08:32:01.216Z,153.0378
2018-01-10T08:33:06.290Z,152.7842
2018-01-10T08:34:11.569Z,153.0378
2018-01-10T08:35:17.038Z,152.7842
2018-01-10T08:36:21.956Z,153.2915
2018-01-10T08:37:27.791Z,153.0378
2018-01-10T08:38:32.970Z,153.0378
2018-01-10T08:39:38.426Z,152.7842
2018-01-10T08:40:43.631Z,152.2769
2018-01-10T08:41:49.234Z,152.2769
2018-01-10T08:42:54.921Z,153.5452
2018-01-10T08:43:59.834Z,153.0378
2018-01-10T08:45:05.484Z,152.7842
2018-01-10T08:46:11.021Z,152.2769
2018-01-10T08:47:16.228Z,152.0232
2018-01-10T08:48:21.143Z,152.0232
2018-01-10T08:49:41.613Z,152.7842
2018-01-10T08:50:47.093Z,152.5305
2018-01-10T08:51:52.611Z,152.5305
2018-01-10T08:52:57.882Z,152.7842
2018-01-10T08:54:03.356Z,152.7842
2018-01-10T08:55:08.832Z,152.2769
2018-01-10T08:56:13.746Z,152.2769
2018-01-10T08:57:18.935Z,152.2769
2018-01-10T08:58:24.262Z,152.7842
2018-01-10T08:59:29.764Z,151.6031
2018-01-10T09:00:35.581Z,152.5305
2018-01-10T09:01:40.786Z,151.6031
2018-01-10T09:02:46.278Z,151.8567
2018-01-10T09:03:52.108Z,152.0232
2018-01-10T09:04:57.282Z,152.5305
2018-01-10T09:06:02.797Z,151.8567
2018-01-10T09:07:08.336Z,152.2769
2018-01-10T09:08:13.233Z,152.5305
2018-01-10T09:09:18.420Z,151.6031
2018-01-10T09:10:24.169Z,151.3494
2018-01-10T09:11:29.411Z,152.0232
2018-01-10T09:12:34.830Z,151.3494
2018-01-10T09:13:40.315Z,152.7842
2018-01-10T09:14:45.219Z,152.0232
2018-01-10T09:15:50.507Z,152.2769
2018-01-10T09:16:55.973Z,153.0378
2018-01-10T09:18:01.182Z,152.0232
2018-01-10T09:19:06.929Z,152.7842
2018-01-10T09:20:12.395Z,152.0232
2018-01-10T09:21:17.303Z,152.0232
2018-01-10T09:22:23.338Z,152.5305
2018-01-10T09:23:28.223Z,153.0378
2018-01-10T09:24:33.664Z,152.5305
2018-01-10T09:25:38.590Z,153.0378
2018-01-10T09:26:44.258Z,152.0232
2018-01-10T09:27:50.053Z,152.7842
2018-01-10T09:28:55.556Z,153.5452
2018-01-10T09:30:01.046Z,152.5305
2018-01-10T09:31:05.809Z,152.2769
2018-01-10T09:32:10.870Z,152.7842
2018-01-10T09:33:16.325Z,152.2769
2018-01-10T09:34:21.907Z,152.2769
2018-01-10T09:35:27.094Z,152.5305
2018-01-10T09:36:32.328Z,152.5305
2018-01-10T09:37:36.938Z,152.0232
2018-01-10T09:38:42.037Z,152.2769
2018-01-10T09:39:47.822Z,152.0232
2018-01-10T09:40:53.489Z,151.8567
2018-01-10T09:41:58.704Z,152.0232
2018-01-10T09:43:03.604Z,152.7842
2018-01-10T09:44:08.700Z,152.2769
2018-01-10T09:45:13.899Z,151.8567
2018-01-10T09:46:19.728Z,152.5305
2018-01-10T09:47:24.931Z,152.5305
2018-01-10T09:48:30.185Z,152.5305
2018-01-10T09:49:35.770Z,152.0232
2018-01-10T09:50:41.276Z,152.7842
2018-01-10T09:51:46.894Z,151.8567
2018-01-10T09:52:52.103Z,152.7842
2018-01-10T09:53:57.579Z,152.0232
2018-01-10T09:55:03.868Z,152.2769
2018-01-10T09:56:09.346Z,151.8567
2018-01-10T09:57:14.813Z,151.6031
2018-01-10T09:58:20.627Z,152.5305
2018-01-10T09:59:25.802Z,152.2769
2018-01-10T10:00:31.264Z,153.0378
2018-01-10T10:01:36.174Z,151.3494
2018-01-10T10:02:41.082Z,152.0232
2018-01-10T10:03:46.534Z,153.0378
2018-01-10T10:04:51.631Z,152.2769
2018-01-10T10:05:56.920Z,152.5305
2018-01-10T10:07:02.402Z,151.8567
2018-01-10T10:08:08.058Z,152.2769
2018-01-10T10:09:12.967Z,151.8567
2018-01-10T10:10:18.702Z,153.2915
2018-01-10T10:11:24.158Z,151.6031
2018-01-10T10:12:29.864Z,152.2769
2018-01-10T10:13:34.772Z,152.2769
2018-01-10T10:14:39.959Z,152.5305
2018-01-10T10:15:45.825Z,152.0232
2018-01-10T10:16:51.297Z,152.0232
2018-01-10T10:17:56.770Z,152.0232
2018-01-10T10:19:01.929Z,153.0378
2018-01-10T10:20:06.757Z,152.2769
2018-01-10T10:21:12.218Z,152.2769
2018-01-10T10:22:17.861Z,152.1077
2018-01-10T10:23:23.342Z,152.5305
2018-01-10T10:24:28.819Z,152.7842
2018-01-10T10:25:33.742Z,152.7842
2018-01-10T10:26:39.224Z,152.5305
2018-01-10T10:27:44.660Z,152.7842
2018-01-10T10:28:49.552Z,152.1077
2018-01-10T10:29:55.051Z,152.5305
2018-01-10T10:31:01.054Z,153.0378
2018-01-10T10:32:05.969Z,152.6151
2018-01-10T10:33:11.195Z,152.6151
2018-01-10T10:34:16.905Z,153.2915
2018-01-10T10:35:22.360Z,153.5452
2018-01-10T10:36:28.113Z,153.7988
2018-01-10T10:37:33.329Z,153.7988
2018-01-10T10:38:38.810Z,153.0378
2018-01-10T10:39:44.229Z,154.3062
2018-01-10T10:40:49.465Z,154.0525
2018-01-10T10:41:54.913Z,155.0645
2018-01-10T10:43:00.196Z,154.8108
2018-01-10T10:44:05.630Z,155.3182
2018-01-10T10:45:10.804Z,154.5598
2018-01-10T10:46:15.959Z,154.5598
2018-01-10T10:47:21.158Z,155.3182
2018-01-10T10:48:27.422Z,154.8108
2018-01-10T10:49:32.337Z,155.7409
2018-01-10T10:50:37.281Z,155.0645
2018-01-10T10:51:42.205Z,155.7409
2018-01-10T10:52:47.710Z,156.671
2018-01-10T10:53:52.915Z,156.2483
2018-01-10T10:54:58.190Z,155.7409
2018-01-10T10:56:03.645Z,156.9247
2018-01-10T10:57:08.856Z,155.7409
2018-01-10T10:58:13.857Z,155.7409
2018-01-10T10:59:18.790Z,157.1784
2018-01-10T11:00:23.706Z,156.7556
2018-01-10T11:01:43.983Z,156.7556
2018-01-10T11:02:48.601Z,157.1784
2018-01-10T11:03:54.431Z,157.432
2018-01-10T11:04:59.897Z,157.1784
2018-01-10T11:06:05.081Z,156.5019
2018-01-10T11:07:10.647Z,157.432
2018-01-10T11:08:16.125Z,157.1784
2018-01-10T11:09:21.623Z,157.0092
2018-01-10T11:10:41.847Z,157.1784
2018-01-10T11:11:47.033Z,157.432
2018-01-10T11:12:52.668Z,157.1784
2018-01-10T11:13:58.139Z,158.4467
2018-01-10T11:15:03.366Z,157.9393
2018-01-10T11:16:08.568Z,157.6857
2018-01-10T11:17:13.483Z,157.6857
2018-01-10T11:18:18.676Z,157.432
2018-01-10T11:19:23.942Z,157.432
2018-01-10T11:20:29.150Z,157.6857
2018-01-10T11:21:34.306Z,157.9393
2018-01-10T11:22:39.781Z,157.432
2018-01-10T11:23:44.954Z,158.4467
2018-01-10T11:24:50.687Z,157.432
2018-01-10T11:25:55.590Z,158.7003
2018-01-10T11:27:01.032Z,157.9393
2018-01-10T11:28:06.775Z,157.432
2018-01-10T11:29:11.969Z,157.6857
2018-01-10T11:30:17.475Z,158.4467
2018-01-10T11:31:22.948Z,158.193
2018-01-10T11:32:28.440Z,157.432
2018-01-10T11:33:34.358Z,158.7003
2018-01-10T11:34:39.282Z,157.9393
2018-01-10T11:35:44.460Z,158.193
2018-01-10T11:36:50.365Z,158.193
2018-01-10T11:37:55.876Z,158.4467
2018-01-10T11:39:00.820Z,158.4467
2018-01-10T11:40:06.547Z,158.4467
2018-01-10T11:41:12.348Z,157.9393
2018-01-10T11:42:18.057Z,158.7003
2018-01-10T11:43:23.508Z,158.193
2018-01-10T11:44:28.974Z,159.1231
2018-01-10T11:45:34.793Z,158.8694
2018-01-10T11:46:40.023Z,158.7003
2018-01-10T11:47:45.450Z,158.7003
2018-01-10T11:48:50.754Z,158.193
2018-01-10T11:49:55.925Z,159.6304
2018-01-10T11:51:01.375Z,159.1231
2018-01-10T11:52:06.510Z,158.7003
2018-01-10T11:53:12.005Z,158.7003
2018-01-10T11:54:17.461Z,159.3768
2018-01-10T11:55:23.183Z,159.1231
2018-01-10T11:56:28.350Z,159.8841
2018-01-10T11:57:33.512Z,158.8694
2018-01-10T11:58:39.162Z,159.6304
2018-01-10T11:59:44.792Z,160.6424
2018-01-10T12:00:50.046Z,159.3768
2018-01-10T12:01:55.224Z,160.3914
2018-01-10T12:02:59.879Z,159.3768
2018-01-10T12:04:05.328Z,159.8841
2018-01-10T12:05:10.504Z,159.6304
2018-01-10T12:06:15.415Z,160.3914
2018-01-10T12:07:20.947Z,159.8841
2018-01-10T12:08:26.410Z,160.1378
2018-01-10T12:09:31.906Z,160.3914
2018-01-10T12:10:36.816Z,159.6304
2018-01-10T12:11:42.358Z,160.6424
2018-01-10T12:12:47.789Z,160.6424
2018-01-10T12:13:53.254Z,160.8961
2018-01-10T12:14:58.715Z,160.1378
2018-01-10T12:16:04.160Z,161.1524
2018-01-10T12:17:09.272Z,160.8961
2018-01-10T12:18:14.908Z,160.6424
2018-01-10T12:19:20.652Z,161.8262
2018-01-10T12:20:26.140Z,161.4061
2018-01-10T12:21:31.403Z,161.8262
2018-01-10T12:22:36.546Z,161.5752
2018-01-10T12:23:41.994Z,162.3335
2018-01-10T12:24:47.699Z,162.5898
2018-01-10T12:25:53.332Z,162.0799
2018-01-10T12:26:58.501Z,162.3335
2018-01-10T12:28:03.365Z,162.0799
2018-01-10T12:29:08.591Z,161.8262
2018-01-10T12:30:13.517Z,161.8262
2018-01-10T12:31:19.288Z,161.8262
2018-01-10T12:32:24.200Z,162.0799
2018-01-10T12:33:28.797Z,162.3335
2018-01-10T12:34:33.424Z,162.0799
2018-01-10T12:35:38.625Z,161.3189
2018-01-10T12:36:43.815Z,161.5752
2018-01-10T12:37:49.281Z,161.5752
2018-01-10T12:38:54.320Z,162.5898
2018-01-10T12:39:59.817Z,161.8262
2018-01-10T12:41:04.432Z,161.8262
2018-01-10T12:42:09.027Z,162.5898
2018-01-10T12:43:14.440Z,162.5898
2018-01-10T12:44:18.760Z,162.0799
2018-01-10T12:45:23.675Z,162.0799
2018-01-10T12:46:43.734Z,162.3335
2018-01-10T12:47:48.530Z,161.4061
2018-01-10T12:48:53.722Z,162.3335
2018-01-10T12:49:58.914Z,161.5752
2018-01-10T12:51:04.175Z,162.0799
2018-01-10T12:52:09.421Z,162.0799